Time;durP1;ratioP1;P1;durP2;ratioP2;P2;SDS_P1;SDS_P2;PMS_P1;PMS_P2;Temp;Humidity;BMP_temperature;BMP_pressure;BME280_temperature;BME280_humidity;BME280_pressure;Samples;Min_cycle;Max_cycle;Signal;HPM_P1;HPM_P2
2023/09/04 00:00:05;;;;;;;5.95;2.90;;;23.10;99.90;;;;;;5094556;28;20032;-61
2023/09/04 00:02:31;;;;;;;7.60;3.08;;;23.10;99.90;;;;;;5094405;28;20364;-62
2023/09/04 00:04:57;;;;;;;8.45;3.22;;;23.20;99.90;;;;;;5094213;28;20477;-61
2023/09/04 00:07:23;;;;;;;6.45;3.20;;;23.20;99.90;;;;;;5093898;28;20020;-61
2023/09/04 00:09:50;;;;;;;6.78;3.20;;;23.20;99.90;;;;;;5094435;28;20085;-61
2023/09/04 00:12:15;;;;;;;5.55;3.00;;;23.20;99.90;;;;;;5094206;28;20058;-62
2023/09/04 00:14:41;;;;;;;9.07;3.05;;;23.20;99.90;;;;;;5094222;28;20048;-61
2023/09/04 00:17:07;;;;;;;6.55;3.30;;;23.20;99.90;;;;;;5094057;28;20020;-62
2023/09/04 00:19:34;;;;;;;7.35;2.97;;;23.20;99.90;;;;;;5093978;28;20020;-61
2023/09/04 00:21:59;;;;;;;5.78;3.13;;;23.20;99.90;;;;;;5094114;28;20032;-61
2023/09/04 00:24:26;;;;;;;8.40;3.10;;;23.10;99.90;;;;;;5093762;28;20039;-62
2023/09/04 00:26:51;;;;;;;7.13;2.92;;;23.10;99.90;;;;;;5094033;28;20501;-61
2023/09/04 00:29:17;;;;;;;9.20;3.25;;;23.10;99.90;;;;;;5093761;28;20039;-62
2023/09/04 00:31:43;;;;;;;6.38;3.10;;;23.10;99.90;;;;;;5093714;28;20032;-62
2023/09/04 00:34:08;;;;;;;7.50;3.28;;;23.10;99.90;;;;;;5094156;28;20024;-61
2023/09/04 00:36:34;;;;;;;8.95;3.47;;;23.10;99.90;;;;;;5093340;28;20024;-61
2023/09/04 00:39:00;;;;;;;6.25;3.10;;;23.00;99.90;;;;;;5093718;28;20054;-61
2023/09/04 00:41:26;;;;;;;7.45;3.20;;;22.90;99.90;;;;;;5093719;28;20407;-61
2023/09/04 00:43:51;;;;;;;6.90;3.05;;;22.80;99.90;;;;;;5093760;28;20078;-61
2023/09/04 00:46:18;;;;;;;6.95;3.10;;;22.70;99.90;;;;;;5093447;28;20044;-61
2023/09/04 00:48:45;;;;;;;5.55;3.30;;;22.60;99.90;;;;;;5093468;28;20050;-61
2023/09/04 00:51:11;;;;;;;6.75;3.22;;;22.50;99.90;;;;;;5093027;28;20024;-61
2023/09/04 00:53:39;;;;;;;5.78;3.40;;;22.40;99.90;;;;;;5093646;28;20500;-61
2023/09/04 00:56:06;;;;;;;5.57;3.17;;;22.30;99.90;;;;;;5093463;28;20032;-61
2023/09/04 00:58:33;;;;;;;9.25;3.30;;;22.30;99.90;;;;;;5093296;28;20031;-61
2023/09/04 01:01:01;;;;;;;5.82;2.97;;;22.20;99.90;;;;;;5093597;28;20115;-61
2023/09/04 01:03:28;;;;;;;5.72;2.90;;;22.20;99.90;;;;;;5093220;28;20551;-61
2023/09/04 01:05:54;;;;;;;4.93;3.13;;;22.20;99.90;;;;;;5092031;28;20078;-61
2023/09/04 01:08:19;;;;;;;5.65;3.17;;;22.20;99.90;;;;;;5093188;28;20078;-61
2023/09/04 01:11:08;;;;;;;4.65;2.97;;;22.20;99.90;;;;;;5093273;28;20035;-61
2023/09/04 01:13:50;;;;;;;8.88;2.97;;;22.20;99.90;;;;;;5093155;28;20409;-61
2023/09/04 01:16:17;;;;;;;6.85;3.08;;;22.10;99.90;;;;;;5093237;28;20472;-61
2023/09/04 01:18:44;;;;;;;7.30;3.40;;;22.10;99.90;;;;;;5093038;28;20473;-61
2023/09/04 01:21:10;;;;;;;6.93;3.03;;;22.20;99.90;;;;;;5074637;28;20029;-61
2023/09/04 01:23:35;;;;;;;7.65;3.45;;;22.30;99.90;;;;;;5092779;28;20508;-62
2023/09/04 01:26:38;;;;;;;6.63;3.25;;;22.50;99.90;;;;;;5092878;28;20055;-62
2023/09/04 01:29:25;;;;;;;7.85;3.28;;;22.60;99.90;;;;;;5052370;28;20072;-61
2023/09/04 01:31:54;;;;;;;9.10;3.80;;;22.60;99.90;;;;;;5052353;28;20021;-61
2023/09/04 01:34:29;;;;;;;6.15;3.10;;;22.60;99.90;;;;;;5052347;28;20027;-62
2023/09/04 01:36:57;;;;;;;5.88;2.97;;;22.50;99.90;;;;;;5052193;28;20029;-61
2023/09/04 01:39:25;;;;;;;8.60;3.20;;;22.60;99.90;;;;;;5052244;28;20438;-61
2023/09/04 01:41:51;;;;;;;7.45;3.00;;;22.60;99.90;;;;;;5052161;28;20071;-61
2023/09/04 01:44:16;;;;;;;7.68;2.92;;;22.60;99.90;;;;;;5052015;28;20025;-61
2023/09/04 01:46:42;;;;;;;5.22;2.90;;;22.70;99.90;;;;;;5052390;28;20029;-61
2023/09/04 01:49:08;;;;;;;5.47;3.00;;;22.70;99.90;;;;;;5051684;28;20389;-61
2023/09/04 01:51:34;;;;;;;4.80;2.80;;;22.70;99.90;;;;;;5051952;28;20040;-61
2023/09/04 01:54:00;;;;;;;4.57;3.00;;;22.70;99.90;;;;;;5052000;28;20429;-61
2023/09/04 01:56:25;;;;;;;7.18;2.75;;;22.60;99.90;;;;;;5052370;28;20032;-61
2023/09/04 01:58:51;;;;;;;7.20;3.13;;;22.60;99.90;;;;;;5051699;28;20025;-62
2023/09/04 02:01:16;;;;;;;4.28;2.95;;;22.40;99.90;;;;;;5051852;28;20045;-61
2023/09/04 02:03:56;;;;;;;5.22;2.58;;;22.30;99.90;;;;;;5051284;28;20021;-61
2023/09/04 02:06:23;;;;;;;4.15;2.83;;;22.30;99.90;;;;;;5051653;28;20410;-62
2023/09/04 02:08:49;;;;;;;6.47;2.80;;;22.20;99.90;;;;;;5051716;28;20119;-61
2023/09/04 02:11:15;;;;;;;6.38;3.38;;;22.10;99.90;;;;;;5051714;28;20093;-61
2023/09/04 02:13:40;;;;;;;5.07;2.80;;;22.10;99.90;;;;;;5051858;28;20087;-62
2023/09/04 02:16:06;;;;;;;5.05;2.88;;;22.00;99.90;;;;;;5051505;28;20025;-62
2023/09/04 02:18:31;;;;;;;5.85;3.15;;;22.00;99.90;;;;;;5051215;28;20024;-62
2023/09/04 02:20:59;;;;;;;6.93;3.50;;;21.90;99.90;;;;;;5051491;28;20021;-62
2023/09/04 02:23:25;;;;;;;5.05;2.88;;;21.90;99.90;;;;;;5051538;28;20160;-61
2023/09/04 02:25:51;;;;;;;5.32;2.83;;;21.80;99.90;;;;;;5051357;28;20541;-61
2023/09/04 02:28:17;;;;;;;5.15;2.90;;;21.70;99.90;;;;;;5067279;28;20478;-61
2023/09/04 02:30:43;;;;;;;6.22;3.13;;;21.70;99.90;;;;;;5071287;28;20028;-61
2023/09/04 02:33:08;;;;;;;4.82;2.90;;;21.60;99.90;;;;;;5071000;28;20083;-60
2023/09/04 02:35:34;;;;;;;6.05;3.00;;;21.60;99.90;;;;;;5071992;28;20031;-61
2023/09/04 02:38:00;;;;;;;10.02;3.40;;;21.60;99.90;;;;;;5071409;28;20031;-61
2023/09/04 02:40:26;;;;;;;5.00;2.90;;;21.60;99.90;;;;;;5071255;28;20041;-61
2023/09/04 02:42:51;;;;;;;3.65;2.80;;;21.70;99.90;;;;;;5071165;28;20024;-61
2023/09/04 02:45:17;;;;;;;5.00;2.83;;;21.80;99.90;;;;;;5071300;28;20043;-61
2023/09/04 02:47:43;;;;;;;7.85;3.10;;;21.90;99.90;;;;;;5071045;28;20438;-61
2023/09/04 02:50:10;;;;;;;5.25;2.90;;;21.90;99.90;;;;;;5053303;28;20103;-61
2023/09/04 02:52:36;;;;;;;7.55;2.97;;;22.00;99.90;;;;;;5070985;28;20071;-61
2023/09/04 02:55:02;;;;;;;3.70;2.90;;;22.00;99.90;;;;;;5053206;28;20032;-61
2023/09/04 02:57:30;;;;;;;6.50;3.10;;;22.00;99.90;;;;;;5071004;28;20024;-61
2023/09/04 02:59:56;;;;;;;5.22;3.15;;;22.00;99.90;;;;;;5071157;28;20025;-62
2023/09/04 03:02:22;;;;;;;4.68;3.10;;;22.00;99.90;;;;;;5070803;28;20115;-61
2023/09/04 03:04:56;;;;;;;4.15;2.70;;;22.00;99.90;;;;;;5071053;28;20044;-62
2023/09/04 03:07:27;;;;;;;6.32;3.00;;;22.10;99.90;;;;;;5070900;28;20496;-61
2023/09/04 03:09:57;;;;;;;5.57;2.90;;;22.10;99.90;;;;;;5071185;28;20016;-61
2023/09/04 03:12:29;;;;;;;4.28;2.80;;;22.20;99.90;;;;;;5071096;28;20508;-61
2023/09/04 03:15:03;;;;;;;4.80;2.80;;;22.20;99.90;;;;;;5052874;28;20025;-61
2023/09/04 03:17:29;;;;;;;5.72;2.80;;;22.10;99.90;;;;;;5070516;28;20070;-61
2023/09/04 03:19:57;;;;;;;6.30;2.95;;;22.00;99.90;;;;;;5070853;28;20021;-61
2023/09/04 03:22:24;;;;;;;7.25;3.10;;;21.90;99.90;;;;;;5070790;28;20044;-61
2023/09/04 03:24:50;;;;;;;5.30;3.30;;;21.80;99.90;;;;;;5071048;28;20024;-61
2023/09/04 03:27:16;;;;;;;5.05;3.03;;;21.70;99.90;;;;;;5071158;28;20044;-61
2023/09/04 03:29:42;;;;;;;5.13;3.08;;;21.70;99.90;;;;;;5074902;28;20055;-62
2023/09/04 03:32:08;;;;;;;5.38;2.97;;;21.60;99.90;;;;;;5074444;28;20592;-61
2023/09/04 03:34:33;;;;;;;4.85;3.08;;;21.60;99.90;;;;;;5074710;28;20108;-61
2023/09/04 03:36:59;;;;;;;7.63;3.28;;;21.50;99.90;;;;;;5074579;28;20067;-61
2023/09/04 03:39:25;;;;;;;6.45;3.38;;;21.40;99.90;;;;;;5074481;28;20024;-61
2023/09/04 03:41:51;;;;;;;4.72;3.28;;;21.40;99.90;;;;;;5074338;28;20485;-61
2023/09/04 03:44:17;;;;;;;5.35;3.05;;;21.40;99.90;;;;;;5074420;28;20024;-61
2023/09/04 03:46:44;;;;;;;5.40;2.85;;;21.40;99.90;;;;;;5074275;28;20056;-61
2023/09/04 03:49:10;;;;;;;7.53;2.95;;;21.40;99.90;;;;;;5074373;28;20504;-61
2023/09/04 03:51:35;;;;;;;6.45;3.25;;;21.40;99.90;;;;;;5074148;28;20029;-61
2023/09/04 03:54:04;;;;;;;4.03;3.00;;;21.40;99.90;;;;;;5074482;28;20020;-61
2023/09/04 03:56:30;;;;;;;5.45;3.33;;;21.30;99.90;;;;;;5074529;28;20032;-61
2023/09/04 03:58:57;;;;;;;4.93;3.00;;;21.40;99.90;;;;;;5074000;28;20020;-61
2023/09/04 04:01:23;;;;;;;3.00;2.70;;;21.50;99.90;;;;;;5074221;28;20043;-61
2023/09/04 04:03:52;;;;;;;5.93;3.70;;;21.70;99.90;;;;;;5074481;28;20028;-61
2023/09/04 04:06:20;;;;;;;4.93;2.90;;;21.80;99.90;;;;;;5073969;28;20041;-61
2023/09/04 04:08:46;;;;;;;7.85;3.63;;;21.80;99.90;;;;;;5073994;28;20020;-61
2023/09/04 04:11:12;;;;;;;7.03;3.22;;;21.90;99.90;;;;;;5073978;28;20405;-61
2023/09/04 04:13:39;;;;;;;5.18;3.05;;;21.90;99.90;;;;;;5074235;28;20139;-61
2023/09/04 04:16:05;;;;;;;8.48;3.45;;;21.90;99.90;;;;;;5073856;28;20516;-61
2023/09/04 04:18:31;;;;;;;4.68;3.10;;;22.00;99.90;;;;;;5073886;28;20020;-61
2023/09/04 04:20:57;;;;;;;5.70;3.00;;;22.00;99.90;;;;;;5073676;28;20436;-61
2023/09/04 04:23:23;;;;;;;5.65;3.17;;;22.00;99.90;;;;;;5073668;28;20037;-61
2023/09/04 04:25:49;;;;;;;4.57;3.17;;;22.00;99.90;;;;;;5073890;28;20401;-60
2023/09/04 04:28:19;;;;;;;5.57;3.40;;;22.00;99.90;;;;;;5073238;28;20073;-61
2023/09/04 04:30:46;;;;;;;5.80;2.90;;;22.00;99.90;;;;;;5074088;28;20032;-62
2023/09/04 04:33:12;;;;;;;4.53;3.25;;;22.00;99.90;;;;;;5073508;28;20099;-61
2023/09/04 04:35:39;;;;;;;4.57;2.95;;;22.00;99.90;;;;;;5055447;28;20036;-61
2023/09/04 04:38:05;;;;;;;7.03;3.25;;;21.90;99.90;;;;;;5073573;28;20141;-61
2023/09/04 04:40:31;;;;;;;5.15;3.30;;;21.80;99.90;;;;;;5054707;28;20082;-61
2023/09/04 04:42:57;;;;;;;7.90;3.15;;;21.70;99.90;;;;;;5073025;28;20028;-61
2023/09/04 04:45:23;;;;;;;4.25;3.05;;;21.50;99.90;;;;;;5073376;28;20047;-61
2023/09/04 04:47:49;;;;;;;5.78;3.47;;;21.50;99.90;;;;;;5073388;28;20086;-61
2023/09/04 04:50:14;;;;;;;4.70;3.05;;;21.50;99.90;;;;;;5073527;28;20393;-61
2023/09/04 04:52:40;;;;;;;5.20;2.80;;;21.50;99.90;;;;;;5072713;28;20052;-61
2023/09/04 04:55:06;;;;;;;6.25;3.25;;;21.50;99.90;;;;;;5073255;28;20032;-61
2023/09/04 04:57:33;;;;;;;4.22;3.05;;;21.50;99.90;;;;;;5073270;28;20151;-61
2023/09/04 04:59:59;;;;;;;5.90;3.03;;;21.50;99.90;;;;;;5073097;28;20103;-61
2023/09/04 05:02:25;;;;;;;3.53;2.92;;;21.40;99.90;;;;;;5073338;28;20128;-61
2023/09/04 05:04:51;;;;;;;5.25;3.05;;;21.40;99.90;;;;;;5072836;28;20025;-61
2023/09/04 05:07:17;;;;;;;5.68;3.10;;;21.40;99.90;;;;;;5073063;28;20393;-61
2023/09/04 05:09:43;;;;;;;6.55;3.53;;;21.40;99.90;;;;;;5073046;28;20025;-61
2023/09/04 05:12:08;;;;;;;4.80;3.30;;;21.40;99.90;;;;;;5072378;28;20472;-61
2023/09/04 05:14:34;;;;;;;4.82;2.95;;;21.40;99.90;;;;;;5072775;28;20502;-61
2023/09/04 05:17:00;;;;;;;5.18;3.20;;;21.30;99.90;;;;;;5072976;28;20115;-61
2023/09/04 05:19:28;;;;;;;6.88;3.25;;;21.30;99.90;;;;;;5072642;28;20402;-61
2023/09/04 05:21:54;;;;;;;7.10;3.25;;;21.50;99.90;;;;;;5072601;28;20382;-61
2023/09/04 05:24:20;;;;;;;6.32;3.38;;;21.70;99.90;;;;;;5072247;28;20065;-61
2023/09/04 05:26:45;;;;;;;4.85;3.42;;;21.70;99.90;;;;;;5072265;28;20460;-61
2023/09/04 05:29:11;;;;;;;6.07;3.83;;;21.80;99.90;;;;;;5072519;28;20029;-61
2023/09/04 05:31:37;;;;;;;7.05;3.78;;;21.90;99.90;;;;;;5072590;28;20122;-61
2023/09/04 05:34:03;;;;;;;6.25;3.50;;;21.90;99.90;;;;;;5072258;28;20111;-61
2023/09/04 05:36:28;;;;;;;6.15;3.58;;;21.90;99.90;;;;;;5072538;28;20017;-61
2023/09/04 05:38:54;;;;;;;8.02;3.53;;;22.00;99.90;;;;;;5072188;28;20462;-61
2023/09/04 05:41:19;;;;;;;5.25;3.50;;;22.00;99.90;;;;;;5071670;28;20594;-61
2023/09/04 05:43:45;;;;;;;6.70;3.80;;;22.00;99.90;;;;;;5072010;28;20028;-61
2023/09/04 05:46:11;;;;;;;6.05;3.72;;;22.00;99.90;;;;;;5071987;28;20036;-61
2023/09/04 05:48:37;;;;;;;6.40;3.90;;;21.90;99.90;;;;;;5072160;28;20025;-61
2023/09/04 05:51:02;;;;;;;6.30;3.80;;;22.00;99.90;;;;;;5071647;28;20036;-61
2023/09/04 05:53:29;;;;;;;8.40;3.90;;;22.10;99.90;;;;;;5072011;28;20083;-61
2023/09/04 05:56:05;;;;;;;8.20;4.05;;;22.10;99.90;;;;;;5071621;28;20055;-61
2023/09/04 05:58:30;;;;;;;7.93;3.90;;;22.00;99.90;;;;;;5071874;28;20024;-61
2023/09/04 06:00:56;;;;;;;5.80;3.80;;;21.90;99.90;;;;;;5071628;28;20079;-61
2023/09/04 06:03:23;;;;;;;7.82;3.97;;;21.80;99.90;;;;;;5072059;28;20059;-60
2023/09/04 06:05:48;;;;;;;6.70;3.70;;;21.70;99.90;;;;;;5071636;28;20037;-61
2023/09/04 06:08:15;;;;;;;4.78;3.70;;;21.70;99.90;;;;;;5071657;28;20021;-61
2023/09/04 06:10:41;;;;;;;6.90;3.55;;;21.70;99.90;;;;;;5071333;28;20094;-61
2023/09/04 06:13:06;;;;;;;6.78;4.00;;;21.70;99.90;;;;;;5053922;28;20485;-61
2023/09/04 06:15:32;;;;;;;5.35;3.47;;;21.70;99.90;;;;;;5071405;28;20544;-61
2023/09/04 06:17:58;;;;;;;5.95;3.40;;;21.70;99.90;;;;;;5071506;28;20086;-61
2023/09/04 06:20:23;;;;;;;7.22;3.65;;;21.70;99.90;;;;;;5071481;28;20087;-61
2023/09/04 06:22:49;;;;;;;4.72;3.88;;;21.70;99.90;;;;;;5071275;28;20082;-61
2023/09/04 06:25:15;;;;;;;6.82;4.15;;;21.70;99.90;;;;;;5071067;28;20043;-61
2023/09/04 06:27:40;;;;;;;6.32;3.97;;;21.70;99.90;;;;;;5071111;28;20044;-61
2023/09/04 06:30:07;;;;;;;5.22;3.85;;;21.70;99.90;;;;;;5071811;28;20024;-61
2023/09/04 06:32:32;;;;;;;6.47;3.85;;;21.80;99.90;;;;;;5071455;28;20028;-61
2023/09/04 06:34:59;;;;;;;4.53;3.45;;;21.80;99.90;;;;;;5071366;28;20020;-61
2023/09/04 06:37:25;;;;;;;7.57;3.70;;;21.80;99.90;;;;;;5053369;28;20021;-61
2023/09/04 06:39:50;;;;;;;6.05;3.67;;;21.90;99.90;;;;;;5070956;28;20377;-61
2023/09/04 06:42:16;;;;;;;7.00;3.70;;;22.00;99.90;;;;;;5071206;28;20033;-61
2023/09/04 06:44:42;;;;;;;6.07;3.85;;;22.20;99.90;;;;;;5071505;28;20032;-60
2023/09/04 06:47:08;;;;;;;4.43;3.75;;;22.40;99.90;;;;;;5071239;28;20034;-60
2023/09/04 06:49:34;;;;;;;7.00;3.47;;;22.60;99.90;;;;;;5071571;28;20024;-60
2023/09/04 06:52:00;;;;;;;5.05;3.60;;;22.60;99.90;;;;;;5070930;28;20033;-61
2023/09/04 06:54:25;;;;;;;6.38;3.28;;;22.70;99.90;;;;;;5070634;28;20095;-61
2023/09/04 06:56:51;;;;;;;4.15;3.10;;;22.80;99.90;;;;;;5071121;28;20024;-60
2023/09/04 06:59:17;;;;;;;6.50;3.47;;;22.90;99.90;;;;;;5071249;28;20259;-61
2023/09/04 07:01:42;;;;;;;4.32;2.90;;;22.90;99.90;;;;;;5070516;28;20036;-60
2023/09/04 07:04:08;;;;;;;4.32;2.85;;;22.90;99.90;;;;;;5070609;28;20033;-60
2023/09/04 07:06:34;;;;;;;3.92;2.90;;;23.00;99.90;;;;;;5070878;28;20029;-60
2023/09/04 07:08:59;;;;;;;4.60;3.20;;;23.00;99.90;;;;;;5070876;28;20508;-61
2023/09/04 07:11:25;;;;;;;4.10;2.80;;;23.00;99.90;;;;;;5070804;28;20028;-61
2023/09/04 07:13:52;;;;;;;3.95;2.95;;;23.00;99.90;;;;;;5071013;28;20021;-60
2023/09/04 07:16:18;;;;;;;3.20;2.85;;;23.00;99.90;;;;;;5070645;28;20132;-60
2023/09/04 07:18:43;;;;;;;4.60;3.08;;;22.90;99.90;;;;;;5070767;28;20111;-60
2023/09/04 07:21:09;;;;;;;4.00;3.03;;;22.80;99.90;;;;;;5071100;28;20107;-60
2023/09/04 07:23:35;;;;;;;6.85;3.10;;;22.70;99.90;;;;;;5070501;28;20027;-60
2023/09/04 07:26:01;;;;;;;5.72;3.38;;;22.60;99.90;;;;;;5070861;28;20512;-60
2023/09/04 07:28:27;;;;;;;4.82;3.25;;;22.60;99.90;;;;;;5070620;28;20045;-61
2023/09/04 07:31:19;;;;;;;7.05;2.60;;;22.60;99.90;;;;;;5070453;28;20415;-61
2023/09/04 07:33:49;;;;;;;7.45;2.97;;;22.60;99.90;;;;;;5070632;28;20043;-60
2023/09/04 07:36:15;;;;;;;5.07;3.10;;;22.60;99.90;;;;;;5070254;28;20151;-60
2023/09/04 07:38:42;;;;;;;5.20;3.65;;;22.50;99.90;;;;;;5070503;28;20103;-60
2023/09/04 07:41:08;;;;;;;4.85;2.97;;;22.50;99.90;;;;;;5070522;28;20505;-59
2023/09/04 07:43:34;;;;;;;5.35;3.20;;;22.50;99.90;;;;;;5070887;28;20100;-60
2023/09/04 07:46:00;;;;;;;3.90;3.10;;;22.50;99.90;;;;;;5070600;28;20140;-59
2023/09/04 07:48:27;;;;;;;4.75;3.00;;;22.60;99.90;;;;;;5070671;28;20135;-60
2023/09/04 07:50:52;;;;;;;5.53;3.20;;;22.60;99.90;;;;;;5070134;28;20039;-60
2023/09/04 07:53:19;;;;;;;5.22;2.90;;;22.60;99.90;;;;;;5070616;28;20012;-59
2023/09/04 07:55:45;;;;;;;4.95;2.95;;;22.60;99.90;;;;;;5052605;28;20025;-59
2023/09/04 07:58:11;;;;;;;3.55;3.00;;;22.70;99.90;;;;;;5070625;28;20087;-60
2023/09/04 08:00:42;;;;;;;3.33;3.00;;;23.00;99.90;;;;;;5070472;28;20032;-58
2023/09/04 08:03:07;;;;;;;3.45;2.90;;;23.10;99.90;;;;;;5070342;28;20036;-60
2023/09/04 08:05:34;;;;;;;6.38;3.08;;;23.30;99.90;;;;;;5070014;28;20036;-59
2023/09/04 08:07:59;;;;;;;4.78;3.13;;;23.40;99.90;;;;;;5070533;28;20091;-59
2023/09/04 08:10:25;;;;;;;4.10;3.05;;;23.50;99.90;;;;;;5070640;28;20488;-59
2023/09/04 08:12:51;;;;;;;4.70;2.80;;;23.50;99.90;;;;;;5070583;28;20460;-59
2023/09/04 08:15:16;;;;;;;5.45;3.00;;;23.60;99.90;;;;;;5073994;28;20404;-60
2023/09/04 08:17:45;;;;;;;5.20;2.97;;;23.60;99.90;;;;;;5074032;28;20449;-59
2023/09/04 08:20:12;;;;;;;4.53;3.25;;;23.70;99.90;;;;;;5073487;28;20032;-59
2023/09/04 08:22:37;;;;;;;4.30;3.15;;;23.80;99.90;;;;;;5074068;28;20036;-60
2023/09/04 08:25:03;;;;;;;5.60;3.33;;;23.80;99.90;;;;;;5073570;28;20025;-59
2023/09/04 08:27:29;;;;;;;5.93;3.47;;;23.90;99.90;;;;;;5073652;28;20097;-59
2023/09/04 08:29:55;;;;;;;4.95;3.58;;;24.00;99.90;;;;;;5073870;28;20108;-59
2023/09/04 08:32:20;;;;;;;5.55;3.20;;;24.20;99.90;;;;;;5055727;28;20413;-60
2023/09/04 08:34:46;;;;;;;4.80;3.00;;;24.10;99.90;;;;;;5073493;28;20111;-59
2023/09/04 08:37:12;;;;;;;5.45;3.03;;;24.10;99.90;;;;;;5073279;28;20141;-60
2023/09/04 08:39:37;;;;;;;3.92;2.85;;;24.10;99.90;;;;;;5073423;28;20035;-60
2023/09/04 08:42:07;;;;;;;3.92;2.60;;;24.00;99.90;;;;;;5073514;28;20017;-60
2023/09/04 08:44:35;;;;;;;3.33;2.80;;;23.90;99.90;;;;;;5073447;28;20029;-60
2023/09/04 08:47:03;;;;;;;3.00;2.60;;;23.90;99.90;;;;;;5073637;28;20505;-60
2023/09/04 08:49:28;;;;;;;4.55;3.47;;;23.80;99.90;;;;;;5072977;28;20025;-60
2023/09/04 08:51:55;;;;;;;4.60;2.70;;;23.80;99.90;;;;;;5084802;28;20024;-60
2023/09/04 08:54:21;;;;;;;3.75;3.00;;;23.80;99.90;;;;;;5093516;28;20028;-61
2023/09/04 08:56:47;;;;;;;5.38;2.85;;;23.90;99.90;;;;;;5093442;28;20032;-60
2023/09/04 08:59:12;;;;;;;3.03;2.60;;;23.90;99.90;;;;;;5075682;28;20073;-59
2023/09/04 09:01:39;;;;;;;4.82;2.47;;;24.00;99.90;;;;;;5093360;28;20504;-59
2023/09/04 09:04:06;;;;;;;3.63;2.72;;;24.00;99.90;;;;;;5093035;28;20019;-60
2023/09/04 09:06:33;;;;;;;4.88;2.72;;;24.10;99.90;;;;;;5093328;28;20055;-60
2023/09/04 09:09:00;;;;;;;3.58;3.00;;;24.20;99.90;;;;;;5093532;28;20700;-63
2023/09/04 09:11:26;;;;;;;5.97;2.75;;;24.10;99.90;;;;;;5092723;28;20032;-62
2023/09/04 09:13:51;;;;;;;5.22;2.88;;;24.20;99.90;;;;;;5093244;28;20074;-60
2023/09/04 09:16:21;;;;;;;6.20;3.00;;;24.30;99.90;;;;;;5093449;28;20505;-60
2023/09/04 09:18:48;;;;;;;5.53;2.83;;;24.30;99.90;;;;;;5092723;28;20020;-60
2023/09/04 09:21:29;;;;;;;4.68;2.80;;;24.40;99.90;;;;;;5077017;28;20051;-60
2023/09/04 09:24:16;;;;;;;3.72;2.70;;;24.60;99.90;;;;;;5072848;28;20539;-60
2023/09/04 09:26:47;;;;;;;6.13;2.85;;;24.80;99.90;;;;;;5071861;28;20060;-60
2023/09/04 09:29:13;;;;;;;3.90;2.83;;;25.00;99.90;;;;;;5072651;28;20024;-60
2023/09/04 09:31:42;;;;;;;3.40;2.60;;;25.10;99.90;;;;;;5072461;28;20079;-60
2023/09/04 09:34:09;;;;;;;6.88;2.80;;;25.20;99.90;;;;;;5072119;28;20520;-60
2023/09/04 09:36:36;;;;;;;4.47;3.20;;;25.30;99.90;;;;;;5072511;28;20028;-60
2023/09/04 09:39:03;;;;;;;5.90;3.00;;;25.30;99.90;;;;;;5072377;28;20036;-60
2023/09/04 09:41:29;;;;;;;5.13;3.17;;;25.40;99.90;;;;;;5054369;28;20385;-60
2023/09/04 09:43:55;;;;;;;5.30;3.30;;;25.50;99.90;;;;;;5072594;28;20032;-60
2023/09/04 09:46:21;;;;;;;5.20;3.45;;;25.50;99.90;;;;;;5054112;28;20128;-60
2023/09/04 09:48:47;;;;;;;6.03;3.35;;;25.60;99.90;;;;;;5071620;28;20024;-60
2023/09/04 09:51:13;;;;;;;3.65;2.85;;;25.60;99.90;;;;;;5071987;28;20465;-60
2023/09/04 09:53:52;;;;;;;5.43;2.67;;;25.70;99.90;;;;;;5072168;28;20099;-60
2023/09/04 09:56:20;;;;;;;4.45;2.72;;;25.70;99.90;;;;;;5071929;28;20036;-60
2023/09/04 09:58:48;;;;;;;3.47;2.60;;;25.70;99.90;;;;;;5071986;28;20437;-60
2023/09/04 10:01:15;;;;;;;6.63;2.88;;;25.60;99.90;;;;;;5071656;28;20028;-59
2023/09/04 10:03:43;;;;;;;4.50;2.53;;;25.50;99.90;;;;;;5071719;28;20556;-61
2023/09/04 10:06:14;;;;;;;4.93;2.75;;;25.40;99.90;;;;;;5071662;28;20501;-60
2023/09/04 10:08:42;;;;;;;4.53;2.55;;;25.50;99.90;;;;;;5072207;28;20458;-60
2023/09/04 10:11:11;;;;;;;4.57;2.70;;;25.60;99.90;;;;;;5071738;28;20060;-60
2023/09/04 10:13:52;;;;;;;3.95;2.60;;;25.60;99.90;;;;;;5071691;28;20114;-60
2023/09/04 10:16:28;;;;;;;4.70;2.70;;;25.70;99.90;;;;;;5071398;28;20020;-59
2023/09/04 10:18:56;;;;;;;5.30;2.83;;;25.70;99.90;;;;;;5071614;28;20097;-61
2023/09/04 10:21:28;;;;;;;3.47;2.42;;;25.70;99.90;;;;;;5071348;28;20028;-60
2023/09/04 10:23:59;;;;;;;6.13;2.78;;;25.80;99.90;;;;;;5072129;28;20024;-60
2023/09/04 10:26:50;;;;;;;7.18;2.50;;;25.80;99.90;;;;;;5071225;28;20040;-59
2023/09/04 10:29:25;;;;;;;4.85;2.70;;;25.90;99.90;;;;;;5071530;28;20047;-60
2023/09/04 10:31:52;;;;;;;5.45;2.90;;;26.00;99.90;;;;;;5070995;28;20035;-60
2023/09/04 10:34:19;;;;;;;5.10;3.00;;;26.20;99.90;;;;;;5071942;28;20035;-60
2023/09/04 10:36:46;;;;;;;4.95;2.78;;;26.20;99.90;;;;;;5070284;28;20548;-60
2023/09/04 10:39:13;;;;;;;4.93;2.83;;;26.30;99.90;;;;;;5071430;28;20052;-60
2023/09/04 10:41:38;;;;;;;6.10;2.90;;;26.40;99.90;;;;;;5071220;28;20497;-60
2023/09/04 10:44:04;;;;;;;5.07;2.55;;;26.50;99.90;;;;;;5071163;28;20077;-60
2023/09/04 10:46:30;;;;;;;5.18;2.80;;;26.70;99.90;;;;;;5071090;28;20075;-59
2023/09/04 10:48:55;;;;;;;4.78;2.80;;;26.90;99.90;;;;;;5071218;28;20021;-60
2023/09/04 10:51:32;;;;;;;4.72;2.70;;;27.00;99.90;;;;;;5070899;28;20021;-60
2023/09/04 10:54:18;;;;;;;4.78;2.83;;;27.20;99.90;;;;;;5071159;28;20493;-60
2023/09/04 10:56:54;;;;;;;6.00;2.88;;;27.30;99.90;;;;;;5056859;28;20454;-60
2023/09/04 10:59:19;;;;;;;4.10;2.83;;;27.40;99.90;;;;;;5070778;28;20024;-60
2023/09/04 11:01:46;;;;;;;5.85;2.83;;;27.50;99.90;;;;;;5071169;28;20020;-61
2023/09/04 11:04:46;;;;;;;5.80;2.90;;;27.60;99.90;;;;;;5071189;28;20385;-60
2023/09/04 11:07:20;;;;;;;5.47;2.83;;;27.70;99.90;;;;;;5052276;28;20429;-60
2023/09/04 11:10:03;;;;;;;6.07;3.08;;;27.80;99.90;;;;;;5071129;28;20035;-60
2023/09/04 11:12:33;;;;;;;5.10;2.90;;;27.90;99.90;;;;;;5071056;28;20087;-60
2023/09/04 11:14:59;;;;;;;4.90;3.03;;;28.00;99.90;;;;;;5070768;28;20031;-60
2023/09/04 11:17:32;;;;;;;5.03;2.80;;;28.10;99.90;;;;;;5071021;28;20017;-60
2023/09/04 11:20:01;;;;;;;6.22;3.17;;;28.10;99.90;;;;;;5070831;28;20036;-60
2023/09/04 11:22:27;;;;;;;5.25;3.15;;;28.10;99.90;;;;;;5052811;28;20027;-60
2023/09/04 11:24:54;;;;;;;3.47;2.60;;;28.10;99.90;;;;;;5070613;28;20040;-60
2023/09/04 11:27:24;;;;;;;7.10;3.28;;;28.00;99.90;;;;;;5070782;28;20091;-60
2023/09/04 11:29:51;;;;;;;6.20;2.97;;;27.90;99.90;;;;;;5070364;28;20035;-60
2023/09/04 11:32:17;;;;;;;5.95;2.90;;;27.90;99.90;;;;;;5070576;28;20016;-60
2023/09/04 11:34:45;;;;;;;6.97;3.22;;;28.00;99.90;;;;;;5071052;28;20024;-60
2023/09/04 11:37:12;;;;;;;5.78;2.97;;;28.10;99.90;;;;;;5070735;28;20028;-60
2023/09/04 11:39:58;;;;;;;3.70;2.67;;;28.20;99.90;;;;;;5070824;28;20021;-59
2023/09/04 11:42:24;;;;;;;9.10;3.17;;;28.20;99.90;;;;;;5052641;28;20052;-60
2023/09/04 11:44:50;;;;;;;7.07;3.30;;;28.30;99.90;;;;;;5070335;28;20029;-60
2023/09/04 11:47:17;;;;;;;6.38;3.30;;;28.30;99.90;;;;;;5070778;28;20093;-61
2023/09/04 11:49:43;;;;;;;5.85;3.03;;;28.40;99.90;;;;;;5073093;28;20051;-60
2023/09/04 11:52:10;;;;;;;5.40;2.95;;;28.50;99.90;;;;;;5074104;28;20484;-60
2023/09/04 11:54:36;;;;;;;6.28;3.20;;;28.60;99.90;;;;;;5074512;28;20029;-60
2023/09/04 11:57:06;;;;;;;3.60;2.92;;;28.70;99.90;;;;;;5074748;28;20028;-60
2023/09/04 11:59:36;;;;;;;5.88;3.00;;;28.80;99.90;;;;;;5073823;28;20024;-60
2023/09/04 12:02:03;;;;;;;7.13;3.38;;;28.90;99.90;;;;;;5074235;28;20032;-60
2023/09/04 12:04:31;;;;;;;6.47;3.33;;;28.90;99.90;;;;;;5074347;28;20028;-60
2023/09/04 12:07:02;;;;;;;6.82;3.40;;;28.90;99.90;;;;;;5074114;28;20575;-60
2023/09/04 12:09:28;;;;;;;11.30;3.47;;;29.00;99.90;;;;;;5074101;28;20025;-60
2023/09/04 12:11:54;;;;;;;4.15;3.17;;;29.10;99.90;;;;;;5073704;28;20370;-61
2023/09/04 12:14:20;;;;;;;5.85;3.47;;;29.30;99.90;;;;;;5074013;28;20070;-60
2023/09/04 12:16:46;;;;;;;4.57;2.63;;;29.10;99.90;;;;;;5073890;28;20016;-60
2023/09/04 12:19:15;;;;;;;6.57;3.10;;;29.10;99.90;;;;;;5072861;28;20043;-60
2023/09/04 12:21:40;;;;;;;5.78;3.28;;;29.00;99.90;;;;;;5073532;28;20477;-61
2023/09/04 12:24:14;;;;;;;7.97;3.60;;;29.00;99.90;;;;;;5073817;28;20039;-61
2023/09/04 12:26:40;;;;;;;8.60;3.60;;;29.30;99.90;;;;;;5073060;28;20037;-61
2023/09/04 12:29:10;;;;;;;6.75;3.15;;;29.40;99.90;;;;;;5055841;28;20504;-60
2023/09/04 12:31:37;;;;;;;6.68;3.22;;;29.70;99.90;;;;;;5073655;28;20051;-61
2023/09/04 12:34:04;;;;;;;8.38;3.58;;;29.70;99.90;;;;;;5073606;28;20025;-61
2023/09/04 12:36:34;;;;;;;10.30;3.35;;;29.60;99.90;;;;;;5073638;28;20374;-60
2023/09/04 12:39:00;;;;;;;10.05;3.28;;;29.70;99.90;;;;;;5073731;28;20481;-61
2023/09/04 12:41:27;;;;;;;13.00;3.58;;;29.90;99.90;;;;;;5072513;28;20020;-61
2023/09/04 12:43:53;;;;;;;9.25;3.60;;;30.00;99.90;;;;;;5073647;28;20028;-60
2023/09/04 12:46:19;;;;;;;9.38;3.63;;;30.10;99.90;;;;;;5073137;28;20036;-61